sensor_id;sensor_type;location;lat;lon;timestamp;temperature;humidity
31443;SHT31;18065;55.876;9.830;2024-02-26T00:00:27;21.65;52.82
31443;SHT31;18065;55.876;9.830;2024-02-26T00:02:56;21.66;52.82
31443;SHT31;18065;55.876;9.830;2024-02-26T00:05:28;21.65;52.76
31443;SHT31;18065;55.876;9.830;2024-02-26T00:07:57;21.65;52.77
31443;SHT31;18065;55.876;9.830;2024-02-26T00:10:26;21.63;52.79
31443;SHT31;18065;55.876;9.830;2024-02-26T00:12:54;21.63;52.79
31443;SHT31;18065;55.876;9.830;2024-02-26T00:15:23;21.65;52.81
31443;SHT31;18065;55.876;9.830;2024-02-26T00:17:53;21.65;52.79
31443;SHT31;18065;55.876;9.830;2024-02-26T00:20:22;21.63;52.79
31443;SHT31;18065;55.876;9.830;2024-02-26T00:22:54;21.63;52.76
31443;SHT31;18065;55.876;9.830;2024-02-26T00:25:23;21.62;52.77
31443;SHT31;18065;55.876;9.830;2024-02-26T00:27:51;21.66;52.74
31443;SHT31;18065;55.876;9.830;2024-02-26T00:30:20;21.67;52.71
31443;SHT31;18065;55.876;9.830;2024-02-26T00:32:49;21.62;52.74
31443;SHT31;18065;55.876;9.830;2024-02-26T00:35:18;21.59;52.74
31443;SHT31;18065;55.876;9.830;2024-02-26T00:37:47;21.63;52.74
31443;SHT31;18065;55.876;9.830;2024-02-26T00:40:19;21.62;52.71
31443;SHT31;18065;55.876;9.830;2024-02-26T00:42:48;21.65;52.72
31443;SHT31;18065;55.876;9.830;2024-02-26T00:45:17;21.59;52.71
31443;SHT31;18065;55.876;9.830;2024-02-26T00:47:45;21.62;52.76
31443;SHT31;18065;55.876;9.830;2024-02-26T00:50:15;21.62;52.75
31443;SHT31;18065;55.876;9.830;2024-02-26T00:52:43;21.63;52.74
31443;SHT31;18065;55.876;9.830;2024-02-26T00:55:12;21.62;52.79
31443;SHT31;18065;55.876;9.830;2024-02-26T00:57:44;21.62;52.79
31443;SHT31;18065;55.876;9.830;2024-02-26T01:00:15;21.59;52.80
31443;SHT31;18065;55.876;9.830;2024-02-26T01:02:44;21.59;52.81
31443;SHT31;18065;55.876;9.830;2024-02-26T01:05:13;21.60;52.81
31443;SHT31;18065;55.876;9.830;2024-02-26T01:07:43;21.59;52.79
31443;SHT31;18065;55.876;9.830;2024-02-26T01:10:11;21.60;52.81
31443;SHT31;18065;55.876;9.830;2024-02-26T01:12:40;21.62;52.81
31443;SHT31;18065;55.876;9.830;2024-02-26T01:15:12;21.59;52.78
31443;SHT31;18065;55.876;9.830;2024-02-26T01:17:41;21.59;52.80
31443;SHT31;18065;55.876;9.830;2024-02-26T01:20:10;21.59;52.78
31443;SHT31;18065;55.876;9.830;2024-02-26T01:22:39;21.58;52.84
31443;SHT31;18065;55.876;9.830;2024-02-26T01:25:08;21.59;52.79
31443;SHT31;18065;55.876;9.830;2024-02-26T01:27:38;21.59;52.80
31443;SHT31;18065;55.876;9.830;2024-02-26T01:30:12;21.58;52.72
31443;SHT31;18065;55.876;9.830;2024-02-26T01:32:41;21.59;52.78
31443;SHT31;18065;55.876;9.830;2024-02-26T01:35:11;21.58;52.74
31443;SHT31;18065;55.876;9.830;2024-02-26T01:37:39;21.58;52.71
31443;SHT31;18065;55.876;9.830;2024-02-26T01:40:09;21.58;52.74
31443;SHT31;18065;55.876;9.830;2024-02-26T01:42:45;21.56;52.75
31443;SHT31;18065;55.876;9.830;2024-02-26T01:45:17;21.56;52.74
31443;SHT31;18065;55.876;9.830;2024-02-26T01:47:49;21.56;52.71
31443;SHT31;18065;55.876;9.830;2024-02-26T01:50:19;21.56;52.71
31443;SHT31;18065;55.876;9.830;2024-02-26T01:52:49;21.58;52.70
31443;SHT31;18065;55.876;9.830;2024-02-26T01:55:18;21.56;52.76
31443;SHT31;18065;55.876;9.830;2024-02-26T01:57:49;21.56;52.76
31443;SHT31;18065;55.876;9.830;2024-02-26T02:00:21;21.56;52.70
31443;SHT31;18065;55.876;9.830;2024-02-26T02:02:50;21.56;52.71
31443;SHT31;18065;55.876;9.830;2024-02-26T02:05:20;21.56;52.76
31443;SHT31;18065;55.876;9.830;2024-02-26T02:07:50;21.58;52.78
31443;SHT31;18065;55.876;9.830;2024-02-26T02:10:19;21.56;52.79
31443;SHT31;18065;55.876;9.830;2024-02-26T02:12:51;21.56;52.79
31443;SHT31;18065;55.876;9.830;2024-02-26T02:15:23;21.55;52.77
31443;SHT31;18065;55.876;9.830;2024-02-26T02:17:52;21.55;52.78
31443;SHT31;18065;55.876;9.830;2024-02-26T02:20:26;21.53;52.80
31443;SHT31;18065;55.876;9.830;2024-02-26T02:23:00;21.56;52.83
31443;SHT31;18065;55.876;9.830;2024-02-26T02:25:29;21.53;52.82
31443;SHT31;18065;55.876;9.830;2024-02-26T02:27:58;21.55;52.80
31443;SHT31;18065;55.876;9.830;2024-02-26T02:30:29;21.58;52.79
31443;SHT31;18065;55.876;9.830;2024-02-26T02:32:59;21.55;52.83
31443;SHT31;18065;55.876;9.830;2024-02-26T02:35:30;21.55;52.79
31443;SHT31;18065;55.876;9.830;2024-02-26T02:37:59;21.53;52.77
31443;SHT31;18065;55.876;9.830;2024-02-26T02:40:28;21.55;52.82
31443;SHT31;18065;55.876;9.830;2024-02-26T02:42:57;21.50;52.84
31443;SHT31;18065;55.876;9.830;2024-02-26T02:45:25;21.53;52.84
31443;SHT31;18065;55.876;9.830;2024-02-26T02:47:54;21.55;52.81
31443;SHT31;18065;55.876;9.830;2024-02-26T02:50:23;21.52;52.81
31443;SHT31;18065;55.876;9.830;2024-02-26T02:52:54;21.52;52.78
31443;SHT31;18065;55.876;9.830;2024-02-26T02:55:23;21.49;52.79
31443;SHT31;18065;55.876;9.830;2024-02-26T02:57:52;21.52;52.73
31443;SHT31;18065;55.876;9.830;2024-02-26T03:00:21;21.53;52.78
31443;SHT31;18065;55.876;9.830;2024-02-26T03:02:50;21.52;52.78
31443;SHT31;18065;55.876;9.830;2024-02-26T03:05:19;21.53;52.77
31443;SHT31;18065;55.876;9.830;2024-02-26T03:07:48;21.52;52.76
31443;SHT31;18065;55.876;9.830;2024-02-26T03:10:19;21.52;52.78
31443;SHT31;18065;55.876;9.830;2024-02-26T03:12:48;21.50;52.78
31443;SHT31;18065;55.876;9.830;2024-02-26T03:15:17;21.52;52.80
31443;SHT31;18065;55.876;9.830;2024-02-26T03:17:45;21.53;52.79
31443;SHT31;18065;55.876;9.830;2024-02-26T03:20:14;21.52;52.79
31443;SHT31;18065;55.876;9.830;2024-02-26T03:22:45;21.49;52.77
31443;SHT31;18065;55.876;9.830;2024-02-26T03:25:14;21.52;52.77
31443;SHT31;18065;55.876;9.830;2024-02-26T03:27:45;21.49;52.80
31443;SHT31;18065;55.876;9.830;2024-02-26T03:30:14;21.50;52.81
31443;SHT31;18065;55.876;9.830;2024-02-26T03:32:43;21.49;52.83
31443;SHT31;18065;55.876;9.830;2024-02-26T03:35:13;21.50;52.83
31443;SHT31;18065;55.876;9.830;2024-02-26T03:37:42;21.49;52.82
31443;SHT31;18065;55.876;9.830;2024-02-26T03:40:12;21.50;52.87
31443;SHT31;18065;55.876;9.830;2024-02-26T03:42:41;21.50;52.79
31443;SHT31;18065;55.876;9.830;2024-02-26T03:45:13;21.50;52.76
31443;SHT31;18065;55.876;9.830;2024-02-26T03:47:42;21.52;52.79
31443;SHT31;18065;55.876;9.830;2024-02-26T03:50:11;21.49;52.79
31443;SHT31;18065;55.876;9.830;2024-02-26T03:52:40;21.48;52.79
31443;SHT31;18065;55.876;9.830;2024-02-26T03:55:08;21.48;52.74
31443;SHT31;18065;55.876;9.830;2024-02-26T03:57:38;21.49;52.79
31443;SHT31;18065;55.876;9.830;2024-02-26T04:00:08;21.49;52.80
31443;SHT31;18065;55.876;9.830;2024-02-26T04:02:40;21.48;52.75
31443;SHT31;18065;55.876;9.830;2024-02-26T04:05:09;21.48;52.74
31443;SHT31;18065;55.876;9.830;2024-02-26T04:07:39;21.49;52.74
31443;SHT31;18065;55.876;9.830;2024-02-26T04:10:11;21.48;52.72
31443;SHT31;18065;55.876;9.830;2024-02-26T04:12:40;21.49;52.73
31443;SHT31;18065;55.876;9.830;2024-02-26T04:15:10;21.53;52.70
31443;SHT31;18065;55.876;9.830;2024-02-26T04:17:42;21.49;52.65
31443;SHT31;18065;55.876;9.830;2024-02-26T04:20:14;21.49;52.68
31443;SHT31;18065;55.876;9.830;2024-02-26T04:22:43;21.49;52.69
31443;SHT31;18065;55.876;9.830;2024-02-26T04:25:12;21.48;52.67
31443;SHT31;18065;55.876;9.830;2024-02-26T04:27:41;21.49;52.81
31443;SHT31;18065;55.876;9.830;2024-02-26T04:30:11;21.50;52.79
31443;SHT31;18065;55.876;9.830;2024-02-26T04:32:42;21.50;52.80
31443;SHT31;18065;55.876;9.830;2024-02-26T04:35:11;21.49;52.77
31443;SHT31;18065;55.876;9.830;2024-02-26T04:37:40;21.50;52.79
31443;SHT31;18065;55.876;9.830;2024-02-26T04:40:10;21.49;52.77
31443;SHT31;18065;55.876;9.830;2024-02-26T04:42:38;21.48;52.76
31443;SHT31;18065;55.876;9.830;2024-02-26T04:45:08;21.48;52.74
31443;SHT31;18065;55.876;9.830;2024-02-26T04:47:37;21.46;52.80
31443;SHT31;18065;55.876;9.830;2024-02-26T04:50:09;21.46;52.75
31443;SHT31;18065;55.876;9.830;2024-02-26T04:52:38;21.48;52.74
31443;SHT31;18065;55.876;9.830;2024-02-26T04:55:07;21.46;52.76
31443;SHT31;18065;55.876;9.830;2024-02-26T04:57:36;21.49;52.72
31443;SHT31;18065;55.876;9.830;2024-02-26T05:00:06;21.49;52.79
31443;SHT31;18065;55.876;9.830;2024-02-26T05:02:35;21.45;52.73
31443;SHT31;18065;55.876;9.830;2024-02-26T05:05:04;21.46;52.69
31443;SHT31;18065;55.876;9.830;2024-02-26T05:07:39;21.46;52.68
31443;SHT31;18065;55.876;9.830;2024-02-26T05:10:09;21.46;52.72
31443;SHT31;18065;55.876;9.830;2024-02-26T05:12:38;21.46;52.70
31443;SHT31;18065;55.876;9.830;2024-02-26T05:15:09;21.48;52.70
31443;SHT31;18065;55.876;9.830;2024-02-26T05:17:43;21.48;52.63
31443;SHT31;18065;55.876;9.830;2024-02-26T05:20:12;21.50;52.57
31443;SHT31;18065;55.876;9.830;2024-02-26T05:22:44;21.52;52.49
31443;SHT31;18065;55.876;9.830;2024-02-26T05:25:14;21.49;52.50
31443;SHT31;18065;55.876;9.830;2024-02-26T05:27:44;21.48;52.49
31443;SHT31;18065;55.876;9.830;2024-02-26T05:30:13;21.49;52.49
31443;SHT31;18065;55.876;9.830;2024-02-26T05:32:42;21.48;52.48
31443;SHT31;18065;55.876;9.830;2024-02-26T05:35:11;21.52;52.49
31443;SHT31;18065;55.876;9.830;2024-02-26T05:37:40;21.49;52.48
31443;SHT31;18065;55.876;9.830;2024-02-26T05:40:13;21.49;52.44
31443;SHT31;18065;55.876;9.830;2024-02-26T05:42:41;21.50;52.46
31443;SHT31;18065;55.876;9.830;2024-02-26T05:45:11;21.52;52.49
31443;SHT31;18065;55.876;9.830;2024-02-26T05:47:39;21.52;52.54
31443;SHT31;18065;55.876;9.830;2024-02-26T05:50:09;21.52;52.57
31443;SHT31;18065;55.876;9.830;2024-02-26T05:52:38;21.50;52.60
31443;SHT31;18065;55.876;9.830;2024-02-26T05:55:08;21.52;52.61
31443;SHT31;18065;55.876;9.830;2024-02-26T05:57:39;21.50;52.63
31443;SHT31;18065;55.876;9.830;2024-02-26T06:00:09;21.50;52.66
31443;SHT31;18065;55.876;9.830;2024-02-26T06:02:38;22.86;50.16
31443;SHT31;18065;55.876;9.830;2024-02-26T06:05:08;27.64;40.01
31443;SHT31;18065;55.876;9.830;2024-02-26T06:07:37;30.48;35.03
31443;SHT31;18065;55.876;9.830;2024-02-26T06:10:06;32.12;32.27
31443;SHT31;18065;55.876;9.830;2024-02-26T06:12:36;32.91;31.14
31443;SHT31;18065;55.876;9.830;2024-02-26T06:15:08;33.37;30.60
31443;SHT31;18065;55.876;9.830;2024-02-26T06:17:37;33.61;30.44
31443;SHT31;18065;55.876;9.830;2024-02-26T06:20:07;33.72;30.26
31443;SHT31;18065;55.876;9.830;2024-02-26T06:22:39;33.48;30.59
31443;SHT31;18065;55.876;9.830;2024-02-26T06:25:08;32.77;31.57
31443;SHT31;18065;55.876;9.830;2024-02-26T06:27:37;32.06;32.49
31443;SHT31;18065;55.876;9.830;2024-02-26T06:30:10;31.33;33.65
31443;SHT31;18065;55.876;9.830;2024-02-26T06:32:38;30.64;34.76
31443;SHT31;18065;55.876;9.830;2024-02-26T06:35:08;30.05;35.80
31443;SHT31;18065;55.876;9.830;2024-02-26T06:37:37;29.45;36.56
31443;SHT31;18065;55.876;9.830;2024-02-26T06:40:07;28.90;37.36
31443;SHT31;18065;55.876;9.830;2024-02-26T06:42:38;28.40;38.20
31443;SHT31;18065;55.876;9.830;2024-02-26T06:45:09;27.90;38.95
31443;SHT31;18065;55.876;9.830;2024-02-26T06:47:38;27.48;39.68
31443;SHT31;18065;55.876;9.830;2024-02-26T06:50:11;27.07;40.41
31443;SHT31;18065;55.876;9.830;2024-02-26T06:52:40;26.72;41.13
31443;SHT31;18065;55.876;9.830;2024-02-26T06:55:09;26.35;41.79
31443;SHT31;18065;55.876;9.830;2024-02-26T06:57:38;26.05;42.40
31443;SHT31;18065;55.876;9.830;2024-02-26T07:00:11;25.86;42.83
31443;SHT31;18065;55.876;9.830;2024-02-26T07:02:42;25.63;43.25
31443;SHT31;18065;55.876;9.830;2024-02-26T07:05:11;25.43;43.71
31443;SHT31;18065;55.876;9.830;2024-02-26T07:07:40;25.26;43.97
31443;SHT31;18065;55.876;9.830;2024-02-26T07:10:09;26.55;41.79
31443;SHT31;18065;55.876;9.830;2024-02-26T07:12:38;30.59;34.91
31443;SHT31;18065;55.876;9.830;2024-02-26T07:15:10;32.67;31.69
31443;SHT31;18065;55.876;9.830;2024-02-26T07:17:39;33.61;30.50
31443;SHT31;18065;55.876;9.830;2024-02-26T07:20:12;33.95;30.01
31443;SHT31;18065;55.876;9.830;2024-02-26T07:22:43;33.85;30.21
31443;SHT31;18065;55.876;9.830;2024-02-26T07:25:12;33.34;30.96
31443;SHT31;18065;55.876;9.830;2024-02-26T07:27:41;32.70;31.98
31443;SHT31;18065;55.876;9.830;2024-02-26T07:30:14;32.04;33.07
31443;SHT31;18065;55.876;9.830;2024-02-26T07:32:43;31.40;33.96
31443;SHT31;18065;55.876;9.830;2024-02-26T07:35:11;30.80;35.07
31443;SHT31;18065;55.876;9.830;2024-02-26T07:37:41;30.29;35.93
31443;SHT31;18065;55.876;9.830;2024-02-26T07:40:10;29.77;36.71
31443;SHT31;18065;55.876;9.830;2024-02-26T07:42:39;29.32;37.55
31443;SHT31;18065;55.876;9.830;2024-02-26T07:45:09;28.91;38.53
31443;SHT31;18065;55.876;9.830;2024-02-26T07:47:41;28.48;39.18
31443;SHT31;18065;55.876;9.830;2024-02-26T07:50:10;28.13;39.92
31443;SHT31;18065;55.876;9.830;2024-02-26T07:52:39;27.81;39.10
31443;SHT31;18065;55.876;9.830;2024-02-26T07:55:08;27.38;40.62
31443;SHT31;18065;55.876;9.830;2024-02-26T07:57:37;27.04;41.32
31443;SHT31;18065;55.876;9.830;2024-02-26T08:00:07;26.78;41.89
31443;SHT31;18065;55.876;9.830;2024-02-26T08:02:36;26.52;42.36
31443;SHT31;18065;55.876;9.830;2024-02-26T08:05:08;26.30;42.90
31443;SHT31;18065;55.876;9.830;2024-02-26T08:07:36;26.05;43.33
31443;SHT31;18065;55.876;9.830;2024-02-26T08:10:07;25.84;43.84
31443;SHT31;18065;55.876;9.830;2024-02-26T08:12:36;25.66;44.22
31443;SHT31;18065;55.876;9.830;2024-02-26T08:15:07;25.49;44.57
31443;SHT31;18065;55.876;9.830;2024-02-26T08:17:37;25.33;44.94
31443;SHT31;18065;55.876;9.830;2024-02-26T08:20:09;25.16;45.27
31443;SHT31;18065;55.876;9.830;2024-02-26T08:22:38;25.01;45.55
31443;SHT31;18065;55.876;9.830;2024-02-26T08:25:08;24.90;45.85
31443;SHT31;18065;55.876;9.830;2024-02-26T08:27:37;24.77;46.05
31443;SHT31;18065;55.876;9.830;2024-02-26T08:30:10;24.54;45.87
31443;SHT31;18065;55.876;9.830;2024-02-26T08:32:42;24.35;46.41
31443;SHT31;18065;55.876;9.830;2024-02-26T08:35:13;24.15;46.77
31443;SHT31;18065;55.876;9.830;2024-02-26T08:37:44;24.03;46.86
31443;SHT31;18065;55.876;9.830;2024-02-26T08:40:13;24.25;46.59
31443;SHT31;18065;55.876;9.830;2024-02-26T08:42:42;24.32;46.37
31443;SHT31;18065;55.876;9.830;2024-02-26T08:45:11;24.35;46.42
31443;SHT31;18065;55.876;9.830;2024-02-26T08:47:40;24.33;46.52
31443;SHT31;18065;55.876;9.830;2024-02-26T08:50:09;24.27;46.70
31443;SHT31;18065;55.876;9.830;2024-02-26T08:52:41;24.27;46.74
31443;SHT31;18065;55.876;9.830;2024-02-26T08:55:11;24.03;47.03
31443;SHT31;18065;55.876;9.830;2024-02-26T08:57:40;23.94;47.32
31443;SHT31;18065;55.876;9.830;2024-02-26T09:00:10;23.81;47.60
31443;SHT31;18065;55.876;9.830;2024-02-26T09:02:41;23.71;47.81
31443;SHT31;18065;55.876;9.830;2024-02-26T09:05:11;23.64;48.11
31443;SHT31;18065;55.876;9.830;2024-02-26T09:07:42;23.54;48.23
31443;SHT31;18065;55.876;9.830;2024-02-26T09:10:12;23.45;48.45
31443;SHT31;18065;55.876;9.830;2024-02-26T09:12:41;23.37;48.73
31443;SHT31;18065;55.876;9.830;2024-02-26T09:15:09;23.31;48.84
31443;SHT31;18065;55.876;9.830;2024-02-26T09:17:38;23.24;49.03
31443;SHT31;18065;55.876;9.830;2024-02-26T09:20:08;23.22;49.12
31443;SHT31;18065;55.876;9.830;2024-02-26T09:22:42;23.16;49.25
31443;SHT31;18065;55.876;9.830;2024-02-26T09:25:11;23.09;49.40
31443;SHT31;18065;55.876;9.830;2024-02-26T09:27:41;23.04;49.50
31443;SHT31;18065;55.876;9.830;2024-02-26T09:30:12;22.97;49.70
31443;SHT31;18065;55.876;9.830;2024-02-26T09:32:41;22.96;49.77
31443;SHT31;18065;55.876;9.830;2024-02-26T09:35:14;24.46;46.70
31443;SHT31;18065;55.876;9.830;2024-02-26T09:37:45;28.23;38.87
31443;SHT31;18065;55.876;9.830;2024-02-26T09:40:15;30.56;34.81
31443;SHT31;18065;55.876;9.830;2024-02-26T09:42:45;31.72;32.91
31443;SHT31;18065;55.876;9.830;2024-02-26T09:45:18;31.96;32.41
31443;SHT31;18065;55.876;9.830;2024-02-26T09:47:47;31.54;33.00
31443;SHT31;18065;55.876;9.830;2024-02-26T09:50:17;30.76;34.30
31443;SHT31;18065;55.876;9.830;2024-02-26T09:52:51;30.23;35.16
31443;SHT31;18065;55.876;9.830;2024-02-26T09:55:20;29.73;35.93
31443;SHT31;18065;55.876;9.830;2024-02-26T09:57:51;29.34;36.47
31443;SHT31;18065;55.876;9.830;2024-02-26T10:00:21;28.87;37.19
31443;SHT31;18065;55.876;9.830;2024-02-26T10:02:51;28.37;38.03
31443;SHT31;18065;55.876;9.830;2024-02-26T10:05:23;27.95;38.91
31443;SHT31;18065;55.876;9.830;2024-02-26T10:07:56;27.50;39.65
31443;SHT31;18065;55.876;9.830;2024-02-26T10:10:28;27.20;40.32
31443;SHT31;18065;55.876;9.830;2024-02-26T10:12:58;26.90;40.72
31443;SHT31;18065;55.876;9.830;2024-02-26T10:15:28;26.58;41.44
31443;SHT31;18065;55.876;9.830;2024-02-26T10:17:56;26.27;42.04
31443;SHT31;18065;55.876;9.830;2024-02-26T10:20:25;26.03;42.57
31443;SHT31;18065;55.876;9.830;2024-02-26T10:22:57;25.79;43.05
31443;SHT31;18065;55.876;9.830;2024-02-26T10:25:26;25.56;43.54
31443;SHT31;18065;55.876;9.830;2024-02-26T10:27:59;25.38;43.99
31443;SHT31;18065;55.876;9.830;2024-02-26T10:30:29;25.16;44.41
31443;SHT31;18065;55.876;9.830;2024-02-26T10:32:59;25.01;44.82
31443;SHT31;18065;55.876;9.830;2024-02-26T10:35:28;24.77;45.16
31443;SHT31;18065;55.876;9.830;2024-02-26T10:38:00;24.61;45.50
31443;SHT31;18065;55.876;9.830;2024-02-26T10:40:29;24.47;45.88
31443;SHT31;18065;55.876;9.830;2024-02-26T10:42:58;24.35;46.16
31443;SHT31;18065;55.876;9.830;2024-02-26T10:45:27;24.19;46.42
31443;SHT31;18065;55.876;9.830;2024-02-26T10:47:56;24.09;46.70
31443;SHT31;18065;55.876;9.830;2024-02-26T10:50:25;24.03;46.89
31443;SHT31;18065;55.876;9.830;2024-02-26T10:52:55;23.95;47.08
31443;SHT31;18065;55.876;9.830;2024-02-26T10:55:28;23.85;47.27
31443;SHT31;18065;55.876;9.830;2024-02-26T10:57:59;23.78;47.52
31443;SHT31;18065;55.876;9.830;2024-02-26T11:00:28;23.65;47.75
31443;SHT31;18065;55.876;9.830;2024-02-26T11:02:58;23.59;47.85
31443;SHT31;18065;55.876;9.830;2024-02-26T11:05:29;23.59;47.88
31443;SHT31;18065;55.876;9.830;2024-02-26T11:07:59;23.54;47.97
31443;SHT31;18065;55.876;9.830;2024-02-26T11:10:31;23.51;48.01
31443;SHT31;18065;55.876;9.830;2024-02-26T11:13:01;23.47;48.11
31443;SHT31;18065;55.876;9.830;2024-02-26T11:15:32;23.38;48.28
31443;SHT31;18065;55.876;9.830;2024-02-26T11:18:01;23.36;48.43
31443;SHT31;18065;55.876;9.830;2024-02-26T11:20:32;23.33;48.54
31443;SHT31;18065;55.876;9.830;2024-02-26T11:23:02;23.27;48.67
31443;SHT31;18065;55.876;9.830;2024-02-26T11:25:34;23.24;48.77
31443;SHT31;18065;55.876;9.830;2024-02-26T11:28:07;23.20;48.84
31443;SHT31;18065;55.876;9.830;2024-02-26T11:30:41;23.17;48.97
31443;SHT31;18065;55.876;9.830;2024-02-26T11:33:11;23.02;49.35
31443;SHT31;18065;55.876;9.830;2024-02-26T11:35:40;23.07;49.31
31443;SHT31;18065;55.876;9.830;2024-02-26T11:38:17;22.99;49.41
31443;SHT31;18065;55.876;9.830;2024-02-26T11:40:50;23.09;49.37
31443;SHT31;18065;55.876;9.830;2024-02-26T11:43:23;23.19;49.02
31443;SHT31;18065;55.876;9.830;2024-02-26T11:45:54;23.27;48.95
31443;SHT31;18065;55.876;9.830;2024-02-26T11:48:25;23.36;49.04
31443;SHT31;18065;55.876;9.830;2024-02-26T11:50:53;23.45;48.91
31443;SHT31;18065;55.876;9.830;2024-02-26T11:53:24;23.50;48.82
31443;SHT31;18065;55.876;9.830;2024-02-26T11:56:18;23.51;48.78
31443;SHT31;18065;55.876;9.830;2024-02-26T11:58:48;23.61;48.83
31443;SHT31;18065;55.876;9.830;2024-02-26T12:01:39;23.59;48.76
31443;SHT31;18065;55.876;9.830;2024-02-26T12:04:12;23.66;48.80
31443;SHT31;18065;55.876;9.830;2024-02-26T12:06:44;23.65;48.78
31443;SHT31;18065;55.876;9.830;2024-02-26T12:09:13;23.71;48.86
31443;SHT31;18065;55.876;9.830;2024-02-26T12:11:45;23.62;48.81
31443;SHT31;18065;55.876;9.830;2024-02-26T12:14:18;23.30;48.87
31443;SHT31;18065;55.876;9.830;2024-02-26T12:16:47;23.16;49.24
31443;SHT31;18065;55.876;9.830;2024-02-26T12:19:19;23.10;49.36
31443;SHT31;18065;55.876;9.830;2024-02-26T12:21:51;23.02;49.50
31443;SHT31;18065;55.876;9.830;2024-02-26T12:24:20;23.10;49.41
31443;SHT31;18065;55.876;9.830;2024-02-26T12:26:52;23.16;49.26
31443;SHT31;18065;55.876;9.830;2024-02-26T12:29:21;23.22;49.13
31443;SHT31;18065;55.876;9.830;2024-02-26T12:31:50;23.20;49.08
31443;SHT31;18065;55.876;9.830;2024-02-26T12:34:19;23.22;49.05
31443;SHT31;18065;55.876;9.830;2024-02-26T12:36:48;23.22;49.12
31443;SHT31;18065;55.876;9.830;2024-02-26T12:39:19;23.23;49.08
31443;SHT31;18065;55.876;9.830;2024-02-26T12:41:48;23.24;49.06
31443;SHT31;18065;55.876;9.830;2024-02-26T12:44:24;23.26;49.02
31443;SHT31;18065;55.876;9.830;2024-02-26T12:47:00;23.26;49.05
31443;SHT31;18065;55.876;9.830;2024-02-26T12:49:28;23.24;49.14
31443;SHT31;18065;55.876;9.830;2024-02-26T12:51:57;23.24;49.09
31443;SHT31;18065;55.876;9.830;2024-02-26T12:54:27;23.27;49.04
31443;SHT31;18065;55.876;9.830;2024-02-26T12:56:57;23.27;49.13
31443;SHT31;18065;55.876;9.830;2024-02-26T12:59:29;23.24;49.12
31443;SHT31;18065;55.876;9.830;2024-02-26T13:01:59;23.24;49.14
31443;SHT31;18065;55.876;9.830;2024-02-26T13:04:29;23.23;49.12
31443;SHT31;18065;55.876;9.830;2024-02-26T13:06:59;23.23;49.12
31443;SHT31;18065;55.876;9.830;2024-02-26T13:09:32;23.24;49.10
31443;SHT31;18065;55.876;9.830;2024-02-26T13:12:04;23.24;49.10
31443;SHT31;18065;55.876;9.830;2024-02-26T13:14:36;23.24;49.11
31443;SHT31;18065;55.876;9.830;2024-02-26T13:17:05;23.24;49.16
31443;SHT31;18065;55.876;9.830;2024-02-26T13:19:34;23.20;49.18
31443;SHT31;18065;55.876;9.830;2024-02-26T13:22:04;22.95;49.60
31443;SHT31;18065;55.876;9.830;2024-02-26T13:24:34;22.89;49.70
31443;SHT31;18065;55.876;9.830;2024-02-26T13:27:03;22.87;49.90
31443;SHT31;18065;55.876;9.830;2024-02-26T13:29:32;22.83;50.03
31443;SHT31;18065;55.876;9.830;2024-02-26T13:32:04;22.79;50.11
31443;SHT31;18065;55.876;9.830;2024-02-26T13:34:34;22.73;50.22
31443;SHT31;18065;55.876;9.830;2024-02-26T13:37:03;22.71;50.29
31443;SHT31;18065;55.876;9.830;2024-02-26T13:39:32;22.89;49.81
31443;SHT31;18065;55.876;9.830;2024-02-26T13:42:01;22.99;49.53
31443;SHT31;18065;55.876;9.830;2024-02-26T13:44:30;23.10;49.39
31443;SHT31;18065;55.876;9.830;2024-02-26T13:47:05;23.13;49.33
31443;SHT31;18065;55.876;9.830;2024-02-26T13:49:33;23.17;49.34
31443;SHT31;18065;55.876;9.830;2024-02-26T13:52:02;23.23;49.29
31443;SHT31;18065;55.876;9.830;2024-02-26T13:54:31;23.24;49.35
31443;SHT31;18065;55.876;9.830;2024-02-26T13:57:01;23.30;49.40
31443;SHT31;18065;55.876;9.830;2024-02-26T13:59:29;23.31;49.45
31443;SHT31;18065;55.876;9.830;2024-02-26T14:01:58;23.34;49.45
31443;SHT31;18065;55.876;9.830;2024-02-26T14:04:30;23.38;49.55
31443;SHT31;18065;55.876;9.830;2024-02-26T14:06:58;23.44;49.61
31443;SHT31;18065;55.876;9.830;2024-02-26T14:09:27;23.45;49.63
31443;SHT31;18065;55.876;9.830;2024-02-26T14:11:57;23.43;49.66
31443;SHT31;18065;55.876;9.830;2024-02-26T14:14:27;23.48;49.69
31443;SHT31;18065;55.876;9.830;2024-02-26T14:16:58;23.51;49.75
31443;SHT31;18065;55.876;9.830;2024-02-26T14:19:31;23.53;49.78
31443;SHT31;18065;55.876;9.830;2024-02-26T14:22:00;23.51;49.83
31443;SHT31;18065;55.876;9.830;2024-02-26T14:24:29;23.54;49.92
31443;SHT31;18065;55.876;9.830;2024-02-26T14:26:58;23.54;50.06
31443;SHT31;18065;55.876;9.830;2024-02-26T14:29:28;23.58;50.10
31443;SHT31;18065;55.876;9.830;2024-02-26T14:31:57;23.57;50.11
31443;SHT31;18065;55.876;9.830;2024-02-26T14:34:27;23.58;50.22
31443;SHT31;18065;55.876;9.830;2024-02-26T14:36:58;23.59;50.32
31443;SHT31;18065;55.876;9.830;2024-02-26T14:39:27;23.58;50.36
31443;SHT31;18065;55.876;9.830;2024-02-26T14:41:56;23.59;50.51
31443;SHT31;18065;55.876;9.830;2024-02-26T14:44:26;23.62;50.49
31443;SHT31;18065;55.876;9.830;2024-02-26T14:46:55;23.71;50.14
31443;SHT31;18065;55.876;9.830;2024-02-26T14:49:23;23.79;49.83
31443;SHT31;18065;55.876;9.830;2024-02-26T14:51:53;23.84;49.71
31443;SHT31;18065;55.876;9.830;2024-02-26T14:54:24;23.86;49.62
31443;SHT31;18065;55.876;9.830;2024-02-26T14:56:53;23.89;49.56
31443;SHT31;18065;55.876;9.830;2024-02-26T14:59:22;23.92;49.69
31443;SHT31;18065;55.876;9.830;2024-02-26T15:01:51;23.66;48.92
31443;SHT31;18065;55.876;9.830;2024-02-26T15:04:19;23.45;49.14
31443;SHT31;18065;55.876;9.830;2024-02-26T15:06:48;23.34;49.49
31443;SHT31;18065;55.876;9.830;2024-02-26T15:09:17;23.24;49.65
31443;SHT31;18065;55.876;9.830;2024-02-26T15:11:49;23.19;49.92
31443;SHT31;18065;55.876;9.830;2024-02-26T15:14:18;23.10;50.34
31443;SHT31;18065;55.876;9.830;2024-02-26T15:16:47;23.04;50.43
31443;SHT31;18065;55.876;9.830;2024-02-26T15:19:15;23.00;50.49
31443;SHT31;18065;55.876;9.830;2024-02-26T15:21:45;22.95;50.28
31443;SHT31;18065;55.876;9.830;2024-02-26T15:24:14;22.92;50.39
31443;SHT31;18065;55.876;9.830;2024-02-26T15:26:45;22.86;50.61
31443;SHT31;18065;55.876;9.830;2024-02-26T15:29:16;22.82;50.71
31443;SHT31;18065;55.876;9.830;2024-02-26T15:31:45;22.80;50.83
31443;SHT31;18065;55.876;9.830;2024-02-26T15:34:14;22.83;50.78
31443;SHT31;18065;55.876;9.830;2024-02-26T15:36:43;22.86;50.68
31443;SHT31;18065;55.876;9.830;2024-02-26T15:39:12;22.90;50.66
31443;SHT31;18065;55.876;9.830;2024-02-26T15:41:40;22.87;50.67
31443;SHT31;18065;55.876;9.830;2024-02-26T15:44:09;22.87;50.51
31443;SHT31;18065;55.876;9.830;2024-02-26T15:46:42;22.89;50.34